sensor_id;sensor_type;location;lat;lon;timestamp;P1;durP1;ratioP1;P2;durP2;ratioP2
78887;SDS011;68276;49.326;8.690;2023-04-24T00:01:26;3.03;;;0.80;;
78887;SDS011;68276;49.326;8.690;2023-04-24T00:03:51;3.08;;;0.60;;
78887;SDS011;68276;49.326;8.690;2023-04-24T00:06:17;3.65;;;0.90;;
78887;SDS011;68276;49.326;8.690;2023-04-24T00:08:42;1.92;;;0.60;;
78887;SDS011;68276;49.326;8.690;2023-04-24T00:11:08;3.90;;;0.75;;
78887;SDS011;68276;49.326;8.690;2023-04-24T00:13:34;1.95;;;0.73;;
78887;SDS011;68276;49.326;8.690;2023-04-24T00:16:00;2.28;;;0.65;;
78887;SDS011;68276;49.326;8.690;2023-04-24T00:18:26;2.28;;;0.50;;
78887;SDS011;68276;49.326;8.690;2023-04-24T00:20:51;1.65;;;0.60;;
78887;SDS011;68276;49.326;8.690;2023-04-24T00:23:17;2.53;;;0.80;;
78887;SDS011;68276;49.326;8.690;2023-04-24T00:25:42;2.22;;;0.55;;
78887;SDS011;68276;49.326;8.690;2023-04-24T00:28:09;2.00;;;0.47;;
78887;SDS011;68276;49.326;8.690;2023-04-24T00:30:34;3.55;;;0.73;;
78887;SDS011;68276;49.326;8.690;2023-04-24T00:33:00;1.48;;;0.45;;
78887;SDS011;68276;49.326;8.690;2023-04-24T00:35:25;2.87;;;0.60;;
78887;SDS011;68276;49.326;8.690;2023-04-24T00:37:50;1.67;;;0.70;;
78887;SDS011;68276;49.326;8.690;2023-04-24T00:40:16;4.57;;;0.80;;
78887;SDS011;68276;49.326;8.690;2023-04-24T00:42:43;3.10;;;0.60;;
78887;SDS011;68276;49.326;8.690;2023-04-24T00:45:08;2.83;;;0.60;;
78887;SDS011;68276;49.326;8.690;2023-04-24T00:47:34;3.85;;;0.80;;
78887;SDS011;68276;49.326;8.690;2023-04-24T00:50:01;2.55;;;0.70;;
78887;SDS011;68276;49.326;8.690;2023-04-24T00:52:30;1.65;;;0.70;;
78887;SDS011;68276;49.326;8.690;2023-04-24T00:54:57;1.48;;;0.47;;
78887;SDS011;68276;49.326;8.690;2023-04-24T00:57:23;1.85;;;0.70;;
78887;SDS011;68276;49.326;8.690;2023-04-24T00:59:49;6.40;;;0.85;;
78887;SDS011;68276;49.326;8.690;2023-04-24T01:02:15;3.83;;;0.60;;
78887;SDS011;68276;49.326;8.690;2023-04-24T01:04:41;1.85;;;0.70;;
78887;SDS011;68276;49.326;8.690;2023-04-24T01:07:06;3.42;;;0.55;;
78887;SDS011;68276;49.326;8.690;2023-04-24T01:09:35;3.50;;;0.80;;
78887;SDS011;68276;49.326;8.690;2023-04-24T01:12:03;1.63;;;0.40;;
78887;SDS011;68276;49.326;8.690;2023-04-24T01:14:28;2.92;;;0.80;;
78887;SDS011;68276;49.326;8.690;2023-04-24T01:16:55;2.28;;;0.77;;
78887;SDS011;68276;49.326;8.690;2023-04-24T01:19:22;3.20;;;0.70;;
78887;SDS011;68276;49.326;8.690;2023-04-24T01:21:47;2.00;;;0.60;;
78887;SDS011;68276;49.326;8.690;2023-04-24T01:24:18;2.45;;;0.60;;
78887;SDS011;68276;49.326;8.690;2023-04-24T01:29:10;2.13;;;0.68;;
78887;SDS011;68276;49.326;8.690;2023-04-24T01:31:36;1.77;;;0.60;;
78887;SDS011;68276;49.326;8.690;2023-04-24T01:34:02;2.00;;;0.60;;
78887;SDS011;68276;49.326;8.690;2023-04-24T01:36:27;2.70;;;0.70;;
78887;SDS011;68276;49.326;8.690;2023-04-24T01:38:54;3.20;;;0.65;;
78887;SDS011;68276;49.326;8.690;2023-04-24T01:41:19;2.08;;;0.60;;
78887;SDS011;68276;49.326;8.690;2023-04-24T01:43:45;2.35;;;0.60;;
78887;SDS011;68276;49.326;8.690;2023-04-24T01:46:11;3.55;;;0.80;;
78887;SDS011;68276;49.326;8.690;2023-04-24T01:48:36;3.55;;;0.80;;
78887;SDS011;68276;49.326;8.690;2023-04-24T01:51:02;3.47;;;0.70;;
78887;SDS011;68276;49.326;8.690;2023-04-24T01:53:27;2.10;;;0.60;;
78887;SDS011;68276;49.326;8.690;2023-04-24T01:55:52;2.07;;;0.80;;
78887;SDS011;68276;49.326;8.690;2023-04-24T01:58:18;3.80;;;0.80;;
78887;SDS011;68276;49.326;8.690;2023-04-24T02:00:43;2.42;;;0.60;;
78887;SDS011;68276;49.326;8.690;2023-04-24T02:03:09;0.93;;;0.50;;
78887;SDS011;68276;49.326;8.690;2023-04-24T02:05:34;1.40;;;0.63;;
78887;SDS011;68276;49.326;8.690;2023-04-24T02:08:00;2.97;;;0.60;;
78887;SDS011;68276;49.326;8.690;2023-04-24T02:10:25;0.87;;;0.53;;
78887;SDS011;68276;49.326;8.690;2023-04-24T02:12:50;4.23;;;1.23;;
78887;SDS011;68276;49.326;8.690;2023-04-24T02:15:16;2.07;;;0.67;;
78887;SDS011;68276;49.326;8.690;2023-04-24T02:17:42;2.85;;;0.80;;
78887;SDS011;68276;49.326;8.690;2023-04-24T02:20:08;5.15;;;0.75;;
78887;SDS011;68276;49.326;8.690;2023-04-24T02:22:33;4.13;;;0.60;;
78887;SDS011;68276;49.326;8.690;2023-04-24T02:24:58;5.30;;;0.90;;
78887;SDS011;68276;49.326;8.690;2023-04-24T02:27:24;3.58;;;0.70;;
78887;SDS011;68276;49.326;8.690;2023-04-24T02:29:50;5.77;;;0.80;;
78887;SDS011;68276;49.326;8.690;2023-04-24T02:32:15;2.23;;;0.67;;
78887;SDS011;68276;49.326;8.690;2023-04-24T02:34:40;1.92;;;0.70;;
78887;SDS011;68276;49.326;8.690;2023-04-24T02:37:06;2.45;;;0.60;;
78887;SDS011;68276;49.326;8.690;2023-04-24T02:39:31;4.77;;;0.80;;
78887;SDS011;68276;49.326;8.690;2023-04-24T02:41:57;1.90;;;0.70;;
78887;SDS011;68276;49.326;8.690;2023-04-24T02:44:23;3.63;;;0.80;;
78887;SDS011;68276;49.326;8.690;2023-04-24T02:46:48;3.03;;;0.70;;
78887;SDS011;68276;49.326;8.690;2023-04-24T02:49:13;4.00;;;0.80;;
78887;SDS011;68276;49.326;8.690;2023-04-24T02:51:39;2.55;;;0.70;;
78887;SDS011;68276;49.326;8.690;2023-04-24T02:54:06;6.88;;;1.10;;
78887;SDS011;68276;49.326;8.690;2023-04-24T02:56:34;5.45;;;0.65;;
78887;SDS011;68276;49.326;8.690;2023-04-24T02:58:59;2.45;;;0.80;;
78887;SDS011;68276;49.326;8.690;2023-04-24T03:01:24;4.23;;;0.70;;
78887;SDS011;68276;49.326;8.690;2023-04-24T03:03:50;2.33;;;0.70;;
78887;SDS011;68276;49.326;8.690;2023-04-24T03:06:15;1.77;;;0.70;;
78887;SDS011;68276;49.326;8.690;2023-04-24T03:08:40;3.03;;;0.80;;
78887;SDS011;68276;49.326;8.690;2023-04-24T03:11:06;2.80;;;0.53;;
78887;SDS011;68276;49.326;8.690;2023-04-24T03:13:31;2.47;;;0.73;;
78887;SDS011;68276;49.326;8.690;2023-04-24T03:15:56;3.67;;;0.70;;
78887;SDS011;68276;49.326;8.690;2023-04-24T03:18:22;2.63;;;0.70;;
78887;SDS011;68276;49.326;8.690;2023-04-24T03:20:47;4.33;;;0.90;;
78887;SDS011;68276;49.326;8.690;2023-04-24T03:23:13;2.20;;;0.77;;
78887;SDS011;68276;49.326;8.690;2023-04-24T03:25:38;3.63;;;1.00;;
78887;SDS011;68276;49.326;8.690;2023-04-24T03:28:03;3.17;;;1.10;;
78887;SDS011;68276;49.326;8.690;2023-04-24T03:30:29;3.90;;;1.05;;
78887;SDS011;68276;49.326;8.690;2023-04-24T03:32:55;2.78;;;1.02;;
78887;SDS011;68276;49.326;8.690;2023-04-24T03:35:20;4.18;;;0.95;;
78887;SDS011;68276;49.326;8.690;2023-04-24T03:37:46;4.25;;;1.10;;
78887;SDS011;68276;49.326;8.690;2023-04-24T03:40:12;4.10;;;1.00;;
78887;SDS011;68276;49.326;8.690;2023-04-24T03:42:37;3.67;;;1.20;;
78887;SDS011;68276;49.326;8.690;2023-04-24T03:45:03;3.58;;;1.15;;
78887;SDS011;68276;49.326;8.690;2023-04-24T03:47:28;4.18;;;0.95;;
78887;SDS011;68276;49.326;8.690;2023-04-24T03:49:54;3.50;;;0.95;;
78887;SDS011;68276;49.326;8.690;2023-04-24T03:54:46;2.97;;;1.00;;
78887;SDS011;68276;49.326;8.690;2023-04-24T03:57:11;2.80;;;0.90;;
78887;SDS011;68276;49.326;8.690;2023-04-24T03:59:36;4.83;;;1.23;;
78887;SDS011;68276;49.326;8.690;2023-04-24T04:02:02;2.83;;;0.90;;
78887;SDS011;68276;49.326;8.690;2023-04-24T04:04:27;2.03;;;0.90;;
78887;SDS011;68276;49.326;8.690;2023-04-24T04:06:53;3.95;;;1.27;;
78887;SDS011;68276;49.326;8.690;2023-04-24T04:09:18;8.52;;;1.40;;
78887;SDS011;68276;49.326;8.690;2023-04-24T04:11:43;5.50;;;1.50;;
78887;SDS011;68276;49.326;8.690;2023-04-24T04:14:09;5.10;;;1.20;;
78887;SDS011;68276;49.326;8.690;2023-04-24T04:16:34;4.47;;;1.30;;
78887;SDS011;68276;49.326;8.690;2023-04-24T04:19:01;4.07;;;1.20;;
78887;SDS011;68276;49.326;8.690;2023-04-24T04:21:27;4.30;;;1.27;;
78887;SDS011;68276;49.326;8.690;2023-04-24T04:23:53;4.20;;;1.20;;
78887;SDS011;68276;49.326;8.690;2023-04-24T04:26:18;4.53;;;1.27;;
78887;SDS011;68276;49.326;8.690;2023-04-24T04:28:46;6.10;;;1.30;;
78887;SDS011;68276;49.326;8.690;2023-04-24T04:33:37;3.23;;;1.10;;
78887;SDS011;68276;49.326;8.690;2023-04-24T04:38:29;5.40;;;1.40;;
78887;SDS011;68276;49.326;8.690;2023-04-24T04:40:55;4.68;;;1.30;;
78887;SDS011;68276;49.326;8.690;2023-04-24T04:43:22;7.68;;;1.50;;
78887;SDS011;68276;49.326;8.690;2023-04-24T04:45:47;6.90;;;1.73;;
78887;SDS011;68276;49.326;8.690;2023-04-24T04:48:13;5.03;;;1.20;;
78887;SDS011;68276;49.326;8.690;2023-04-24T04:50:39;5.07;;;1.50;;
78887;SDS011;68276;49.326;8.690;2023-04-24T04:53:04;5.07;;;1.67;;
78887;SDS011;68276;49.326;8.690;2023-04-24T04:55:30;4.80;;;1.35;;
78887;SDS011;68276;49.326;8.690;2023-04-24T04:57:57;6.80;;;1.73;;
78887;SDS011;68276;49.326;8.690;2023-04-24T05:00:22;4.17;;;1.43;;
78887;SDS011;68276;49.326;8.690;2023-04-24T05:02:50;6.45;;;1.58;;
78887;SDS011;68276;49.326;8.690;2023-04-24T05:05:16;5.13;;;1.55;;
78887;SDS011;68276;49.326;8.690;2023-04-24T05:07:42;4.93;;;1.83;;
78887;SDS011;68276;49.326;8.690;2023-04-24T05:10:08;6.25;;;1.90;;
78887;SDS011;68276;49.326;8.690;2023-04-24T05:12:34;4.85;;;1.50;;
78887;SDS011;68276;49.326;8.690;2023-04-24T05:14:59;5.33;;;1.60;;
78887;SDS011;68276;49.326;8.690;2023-04-24T05:17:25;5.03;;;1.88;;
78887;SDS011;68276;49.326;8.690;2023-04-24T05:19:51;5.57;;;1.58;;
78887;SDS011;68276;49.326;8.690;2023-04-24T05:22:16;6.93;;;2.47;;
78887;SDS011;68276;49.326;8.690;2023-04-24T05:24:43;7.30;;;1.90;;
78887;SDS011;68276;49.326;8.690;2023-04-24T05:27:08;5.07;;;1.53;;
78887;SDS011;68276;49.326;8.690;2023-04-24T05:29:34;7.38;;;1.70;;
78887;SDS011;68276;49.326;8.690;2023-04-24T05:32:00;7.53;;;1.63;;
78887;SDS011;68276;49.326;8.690;2023-04-24T05:34:25;6.22;;;1.60;;
78887;SDS011;68276;49.326;8.690;2023-04-24T05:36:51;4.68;;;1.50;;
78887;SDS011;68276;49.326;8.690;2023-04-24T05:39:17;5.97;;;1.70;;
78887;SDS011;68276;49.326;8.690;2023-04-24T05:41:42;7.40;;;1.88;;
78887;SDS011;68276;49.326;8.690;2023-04-24T05:44:08;5.63;;;1.95;;
78887;SDS011;68276;49.326;8.690;2023-04-24T05:46:34;6.90;;;2.10;;
78887;SDS011;68276;49.326;8.690;2023-04-24T05:48:59;5.73;;;1.90;;
78887;SDS011;68276;49.326;8.690;2023-04-24T05:51:24;4.83;;;1.60;;
78887;SDS011;68276;49.326;8.690;2023-04-24T05:53:51;7.82;;;2.08;;
78887;SDS011;68276;49.326;8.690;2023-04-24T05:56:17;5.65;;;1.88;;
78887;SDS011;68276;49.326;8.690;2023-04-24T05:58:43;6.00;;;1.88;;
78887;SDS011;68276;49.326;8.690;2023-04-24T06:01:09;5.82;;;1.83;;
78887;SDS011;68276;49.326;8.690;2023-04-24T06:03:34;5.03;;;1.63;;
78887;SDS011;68276;49.326;8.690;2023-04-24T06:06:00;7.35;;;1.92;;
78887;SDS011;68276;49.326;8.690;2023-04-24T06:08:25;7.47;;;2.20;;
78887;SDS011;68276;49.326;8.690;2023-04-24T06:10:51;5.80;;;1.80;;
78887;SDS011;68276;49.326;8.690;2023-04-24T06:13:16;6.05;;;1.88;;
78887;SDS011;68276;49.326;8.690;2023-04-24T06:15:42;6.50;;;2.10;;
78887;SDS011;68276;49.326;8.690;2023-04-24T06:18:09;6.95;;;2.22;;
78887;SDS011;68276;49.326;8.690;2023-04-24T06:20:35;6.15;;;1.90;;
78887;SDS011;68276;49.326;8.690;2023-04-24T06:23:01;6.10;;;1.95;;
78887;SDS011;68276;49.326;8.690;2023-04-24T06:25:26;6.10;;;1.90;;
78887;SDS011;68276;49.326;8.690;2023-04-24T06:27:53;7.03;;;2.30;;
78887;SDS011;68276;49.326;8.690;2023-04-24T06:30:20;6.88;;;2.28;;
78887;SDS011;68276;49.326;8.690;2023-04-24T06:32:45;8.73;;;2.10;;
78887;SDS011;68276;49.326;8.690;2023-04-24T06:35:10;6.57;;;2.13;;
78887;SDS011;68276;49.326;8.690;2023-04-24T06:37:37;6.57;;;2.05;;
78887;SDS011;68276;49.326;8.690;2023-04-24T06:40:04;5.82;;;1.77;;
78887;SDS011;68276;49.326;8.690;2023-04-24T06:42:30;6.35;;;1.90;;
78887;SDS011;68276;49.326;8.690;2023-04-24T06:44:56;12.00;;;2.30;;
78887;SDS011;68276;49.326;8.690;2023-04-24T06:47:21;5.73;;;2.00;;
78887;SDS011;68276;49.326;8.690;2023-04-24T06:49:46;5.60;;;1.73;;
78887;SDS011;68276;49.326;8.690;2023-04-24T06:52:12;6.43;;;1.90;;
78887;SDS011;68276;49.326;8.690;2023-04-24T06:54:37;5.67;;;1.73;;
78887;SDS011;68276;49.326;8.690;2023-04-24T06:57:02;5.27;;;1.60;;
78887;SDS011;68276;49.326;8.690;2023-04-24T06:59:28;5.88;;;1.65;;
78887;SDS011;68276;49.326;8.690;2023-04-24T07:01:54;5.47;;;1.80;;
78887;SDS011;68276;49.326;8.690;2023-04-24T07:04:20;5.50;;;1.38;;
78887;SDS011;68276;49.326;8.690;2023-04-24T07:06:46;4.18;;;1.42;;
78887;SDS011;68276;49.326;8.690;2023-04-24T07:09:12;5.43;;;1.60;;
78887;SDS011;68276;49.326;8.690;2023-04-24T07:11:38;5.18;;;1.40;;
78887;SDS011;68276;49.326;8.690;2023-04-24T07:14:05;4.75;;;1.20;;
78887;SDS011;68276;49.326;8.690;2023-04-24T07:16:31;4.53;;;1.63;;
78887;SDS011;68276;49.326;8.690;2023-04-24T07:18:56;4.93;;;1.40;;
78887;SDS011;68276;49.326;8.690;2023-04-24T07:21:22;4.83;;;1.40;;
78887;SDS011;68276;49.326;8.690;2023-04-24T07:23:47;4.65;;;1.50;;
78887;SDS011;68276;49.326;8.690;2023-04-24T07:26:13;5.07;;;1.57;;
78887;SDS011;68276;49.326;8.690;2023-04-24T07:28:39;4.65;;;1.30;;
78887;SDS011;68276;49.326;8.690;2023-04-24T07:31:05;4.85;;;1.50;;
78887;SDS011;68276;49.326;8.690;2023-04-24T07:33:31;3.63;;;1.25;;
78887;SDS011;68276;49.326;8.690;2023-04-24T07:35:56;6.73;;;1.60;;
78887;SDS011;68276;49.326;8.690;2023-04-24T07:38:22;6.47;;;1.75;;
78887;SDS011;68276;49.326;8.690;2023-04-24T07:40:47;4.03;;;1.45;;
78887;SDS011;68276;49.326;8.690;2023-04-24T07:43:13;6.03;;;1.30;;
78887;SDS011;68276;49.326;8.690;2023-04-24T07:45:40;4.10;;;1.13;;
78887;SDS011;68276;49.326;8.690;2023-04-24T07:48:06;3.93;;;1.17;;
78887;SDS011;68276;49.326;8.690;2023-04-24T07:50:33;5.50;;;1.48;;
78887;SDS011;68276;49.326;8.690;2023-04-24T07:52:59;3.75;;;1.20;;
78887;SDS011;68276;49.326;8.690;2023-04-24T07:55:25;3.10;;;1.20;;
78887;SDS011;68276;49.326;8.690;2023-04-24T07:57:50;3.85;;;1.20;;
78887;SDS011;68276;49.326;8.690;2023-04-24T08:00:16;4.07;;;1.10;;
78887;SDS011;68276;49.326;8.690;2023-04-24T08:02:42;5.95;;;1.42;;
78887;SDS011;68276;49.326;8.690;2023-04-24T08:05:07;2.80;;;1.10;;
78887;SDS011;68276;49.326;8.690;2023-04-24T08:07:33;3.78;;;1.25;;
78887;SDS011;68276;49.326;8.690;2023-04-24T08:10:00;3.40;;;1.30;;
78887;SDS011;68276;49.326;8.690;2023-04-24T08:12:25;3.75;;;1.30;;
78887;SDS011;68276;49.326;8.690;2023-04-24T08:14:53;5.43;;;1.23;;
78887;SDS011;68276;49.326;8.690;2023-04-24T08:17:18;3.77;;;1.07;;
78887;SDS011;68276;49.326;8.690;2023-04-24T08:19:44;2.93;;;0.97;;
78887;SDS011;68276;49.326;8.690;2023-04-24T08:22:13;5.28;;;1.25;;
78887;SDS011;68276;49.326;8.690;2023-04-24T08:24:39;3.55;;;1.05;;
78887;SDS011;68276;49.326;8.690;2023-04-24T08:27:05;2.33;;;0.88;;
78887;SDS011;68276;49.326;8.690;2023-04-24T08:29:31;2.40;;;1.00;;
78887;SDS011;68276;49.326;8.690;2023-04-24T08:31:56;2.60;;;1.00;;
78887;SDS011;68276;49.326;8.690;2023-04-24T08:34:22;4.90;;;1.30;;
78887;SDS011;68276;49.326;8.690;2023-04-24T08:36:47;3.22;;;1.15;;
78887;SDS011;68276;49.326;8.690;2023-04-24T08:39:13;2.78;;;1.17;;
78887;SDS011;68276;49.326;8.690;2023-04-24T08:41:41;3.55;;;1.10;;
78887;SDS011;68276;49.326;8.690;2023-04-24T08:44:08;2.70;;;0.90;;
78887;SDS011;68276;49.326;8.690;2023-04-24T08:46:35;3.70;;;1.02;;
78887;SDS011;68276;49.326;8.690;2023-04-24T08:49:03;2.78;;;0.93;;
78887;SDS011;68276;49.326;8.690;2023-04-24T08:53:56;1.33;;;0.63;;
78887;SDS011;68276;49.326;8.690;2023-04-24T08:58:49;4.40;;;1.20;;
78887;SDS011;68276;49.326;8.690;2023-04-24T09:01:16;2.28;;;0.90;;
78887;SDS011;68276;49.326;8.690;2023-04-24T09:03:43;5.03;;;1.20;;
78887;SDS011;68276;49.326;8.690;2023-04-24T09:06:09;2.65;;;0.98;;
78887;SDS011;68276;49.326;8.690;2023-04-24T09:08:35;4.15;;;0.70;;
78887;SDS011;68276;49.326;8.690;2023-04-24T09:11:01;8.95;;;2.28;;
78887;SDS011;68276;49.326;8.690;2023-04-24T09:13:29;2.53;;;0.90;;
78887;SDS011;68276;49.326;8.690;2023-04-24T09:15:56;3.20;;;1.10;;
78887;SDS011;68276;49.326;8.690;2023-04-24T09:20:57;6.55;;;1.70;;
78887;SDS011;68276;49.326;8.690;2023-04-24T09:23:25;2.92;;;1.00;;
78887;SDS011;68276;49.326;8.690;2023-04-24T09:25:53;4.82;;;1.27;;
78887;SDS011;68276;49.326;8.690;2023-04-24T09:28:22;5.60;;;1.50;;
78887;SDS011;68276;49.326;8.690;2023-04-24T09:31:01;3.63;;;1.17;;
78887;SDS011;68276;49.326;8.690;2023-04-24T09:33:30;4.93;;;1.65;;
78887;SDS011;68276;49.326;8.690;2023-04-24T09:35:56;3.95;;;1.10;;
78887;SDS011;68276;49.326;8.690;2023-04-24T09:38:31;4.80;;;1.10;;
78887;SDS011;68276;49.326;8.690;2023-04-24T09:41:04;1.45;;;0.82;;
78887;SDS011;68276;49.326;8.690;2023-04-24T09:43:31;3.25;;;1.10;;
78887;SDS011;68276;49.326;8.690;2023-04-24T09:45:57;3.40;;;1.30;;
78887;SDS011;68276;49.326;8.690;2023-04-24T09:48:31;3.45;;;1.00;;
78887;SDS011;68276;49.326;8.690;2023-04-24T09:51:01;3.03;;;1.15;;
78887;SDS011;68276;49.326;8.690;2023-04-24T09:53:28;3.08;;;1.20;;
78887;SDS011;68276;49.326;8.690;2023-04-24T09:55:55;2.35;;;1.10;;
78887;SDS011;68276;49.326;8.690;2023-04-24T09:58:26;5.35;;;1.45;;
78887;SDS011;68276;49.326;8.690;2023-04-24T10:00:53;2.63;;;0.93;;
78887;SDS011;68276;49.326;8.690;2023-04-24T10:03:20;3.05;;;1.10;;
78887;SDS011;68276;49.326;8.690;2023-04-24T10:05:46;3.63;;;1.25;;
78887;SDS011;68276;49.326;8.690;2023-04-24T10:08:12;4.25;;;1.30;;
78887;SDS011;68276;49.326;8.690;2023-04-24T10:13:07;4.35;;;1.33;;
78887;SDS011;68276;49.326;8.690;2023-04-24T10:15:34;4.85;;;1.30;;
78887;SDS011;68276;49.326;8.690;2023-04-24T10:18:02;5.03;;;1.50;;
78887;SDS011;68276;49.326;8.690;2023-04-24T10:20:31;5.53;;;1.60;;
78887;SDS011;68276;49.326;8.690;2023-04-24T10:22:57;6.05;;;1.70;;
78887;SDS011;68276;49.326;8.690;2023-04-24T10:27:55;5.57;;;1.45;;
78887;SDS011;68276;49.326;8.690;2023-04-24T10:30:25;4.65;;;1.38;;
78887;SDS011;68276;49.326;8.690;2023-04-24T10:33:00;5.65;;;1.70;;
78887;SDS011;68276;49.326;8.690;2023-04-24T10:35:26;3.50;;;1.50;;
78887;SDS011;68276;49.326;8.690;2023-04-24T10:37:57;3.85;;;1.40;;
78887;SDS011;68276;49.326;8.690;2023-04-24T10:40:27;4.53;;;1.40;;
78887;SDS011;68276;49.326;8.690;2023-04-24T10:42:55;4.80;;;1.35;;
78887;SDS011;68276;49.326;8.690;2023-04-24T10:45:22;4.80;;;1.60;;
78887;SDS011;68276;49.326;8.690;2023-04-24T10:50:26;7.03;;;2.03;;
78887;SDS011;68276;49.326;8.690;2023-04-24T10:52:53;6.10;;;1.83;;
78887;SDS011;68276;49.326;8.690;2023-04-24T10:58:09;5.85;;;1.85;;
78887;SDS011;68276;49.326;8.690;2023-04-24T11:00:37;4.45;;;1.50;;
78887;SDS011;68276;49.326;8.690;2023-04-24T11:03:05;7.13;;;1.95;;
78887;SDS011;68276;49.326;8.690;2023-04-24T11:05:48;5.53;;;1.80;;
78887;SDS011;68276;49.326;8.690;2023-04-24T11:08:21;5.38;;;1.67;;
78887;SDS011;68276;49.326;8.690;2023-04-24T11:16:26;4.68;;;1.42;;
78887;SDS011;68276;49.326;8.690;2023-04-24T11:24:28;6.18;;;1.85;;
78887;SDS011;68276;49.326;8.690;2023-04-24T11:34:59;4.78;;;1.60;;
78887;SDS011;68276;49.326;8.690;2023-04-24T11:37:27;5.13;;;1.63;;
78887;SDS011;68276;49.326;8.690;2023-04-24T11:39:58;4.80;;;1.40;;
78887;SDS011;68276;49.326;8.690;2023-04-24T11:42:23;4.53;;;1.40;;
78887;SDS011;68276;49.326;8.690;2023-04-24T11:44:51;6.93;;;1.75;;
78887;SDS011;68276;49.326;8.690;2023-04-24T11:47:17;5.47;;;1.65;;
78887;SDS011;68276;49.326;8.690;2023-04-24T11:49:43;6.37;;;1.80;;
78887;SDS011;68276;49.326;8.690;2023-04-24T11:52:08;5.20;;;1.45;;
78887;SDS011;68276;49.326;8.690;2023-04-24T11:54:34;6.38;;;1.80;;
78887;SDS011;68276;49.326;8.690;2023-04-24T11:56:59;4.47;;;1.58;;
78887;SDS011;68276;49.326;8.690;2023-04-24T11:59:29;5.68;;;1.63;;
78887;SDS011;68276;49.326;8.690;2023-04-24T12:01:55;6.70;;;1.40;;
78887;SDS011;68276;49.326;8.690;2023-04-24T12:04:20;7.03;;;1.80;;
78887;SDS011;68276;49.326;8.690;2023-04-24T12:07:04;5.83;;;1.87;;
78887;SDS011;68276;49.326;8.690;2023-04-24T12:12:08;7.55;;;1.95;;
78887;SDS011;68276;49.326;8.690;2023-04-24T12:14:41;8.05;;;2.20;;
78887;SDS011;68276;49.326;8.690;2023-04-24T12:17:15;7.35;;;1.90;;
78887;SDS011;68276;49.326;8.690;2023-04-24T12:19:45;6.65;;;1.83;;
78887;SDS011;68276;49.326;8.690;2023-04-24T12:22:12;9.45;;;2.10;;
78887;SDS011;68276;49.326;8.690;2023-04-24T12:24:55;8.90;;;2.08;;
78887;SDS011;68276;49.326;8.690;2023-04-24T12:27:25;5.30;;;1.67;;
78887;SDS011;68276;49.326;8.690;2023-04-24T12:29:55;6.05;;;1.80;;
78887;SDS011;68276;49.326;8.690;2023-04-24T12:32:21;6.05;;;1.80;;
78887;SDS011;68276;49.326;8.690;2023-04-24T12:34:47;2.72;;;1.17;;
78887;SDS011;68276;49.326;8.690;2023-04-24T12:37:14;5.07;;;1.48;;
78887;SDS011;68276;49.326;8.690;2023-04-24T12:39:39;6.97;;;2.17;;
78887;SDS011;68276;49.326;8.690;2023-04-24T12:42:29;4.05;;;1.52;;
78887;SDS011;68276;49.326;8.690;2023-04-24T12:44:59;5.30;;;1.60;;
78887;SDS011;68276;49.326;8.690;2023-04-24T12:47:26;7.95;;;1.70;;
78887;SDS011;68276;49.326;8.690;2023-04-24T12:49:53;4.50;;;1.30;;
78887;SDS011;68276;49.326;8.690;2023-04-24T12:52:20;3.72;;;1.35;;
78887;SDS011;68276;49.326;8.690;2023-04-24T12:57:11;7.20;;;1.73;;
78887;SDS011;68276;49.326;8.690;2023-04-24T12:59:37;5.70;;;1.30;;
78887;SDS011;68276;49.326;8.690;2023-04-24T13:02:04;5.00;;;1.40;;
78887;SDS011;68276;49.326;8.690;2023-04-24T13:04:29;9.23;;;1.60;;
78887;SDS011;68276;49.326;8.690;2023-04-24T13:06:57;5.93;;;1.50;;
78887;SDS011;68276;49.326;8.690;2023-04-24T13:09:22;4.50;;;1.50;;
78887;SDS011;68276;49.326;8.690;2023-04-24T13:11:48;6.07;;;1.52;;
78887;SDS011;68276;49.326;8.690;2023-04-24T13:14:14;5.53;;;1.70;;
78887;SDS011;68276;49.326;8.690;2023-04-24T13:16:40;6.68;;;1.50;;
78887;SDS011;68276;49.326;8.690;2023-04-24T13:19:05;5.17;;;1.53;;
78887;SDS011;68276;49.326;8.690;2023-04-24T13:21:31;4.40;;;1.60;;
78887;SDS011;68276;49.326;8.690;2023-04-24T13:23:56;5.55;;;1.60;;
78887;SDS011;68276;49.326;8.690;2023-04-24T13:26:22;7.27;;;1.90;;
78887;SDS011;68276;49.326;8.690;2023-04-24T13:28:47;6.90;;;1.90;;
78887;SDS011;68276;49.326;8.690;2023-04-24T13:31:13;5.22;;;1.65;;
78887;SDS011;68276;49.326;8.690;2023-04-24T13:33:39;4.60;;;1.80;;
78887;SDS011;68276;49.326;8.690;2023-04-24T13:36:05;5.88;;;1.60;;
78887;SDS011;68276;49.326;8.690;2023-04-24T13:38:30;6.55;;;1.88;;
78887;SDS011;68276;49.326;8.690;2023-04-24T13:40:56;6.88;;;1.98;;
78887;SDS011;68276;49.326;8.690;2023-04-24T13:43:21;4.90;;;1.70;;
78887;SDS011;68276;49.326;8.690;2023-04-24T13:45:47;5.53;;;1.92;;
78887;SDS011;68276;49.326;8.690;2023-04-24T13:48:12;6.33;;;1.90;;
78887;SDS011;68276;49.326;8.690;2023-04-24T13:50:40;4.85;;;1.52;;
78887;SDS011;68276;49.326;8.690;2023-04-24T13:53:06;6.95;;;2.10;;
78887;SDS011;68276;49.326;8.690;2023-04-24T13:55:31;4.30;;;1.23;;
78887;SDS011;68276;49.326;8.690;2023-04-24T13:57:57;4.65;;;1.40;;
78887;SDS011;68276;49.326;8.690;2023-04-24T14:00:22;6.00;;;1.67;;
78887;SDS011;68276;49.326;8.690;2023-04-24T14:02:48;7.35;;;1.80;;
78887;SDS011;68276;49.326;8.690;2023-04-24T14:05:13;5.07;;;1.77;;
78887;SDS011;68276;49.326;8.690;2023-04-24T14:10:05;3.38;;;1.25;;
78887;SDS011;68276;49.326;8.690;2023-04-24T14:12:31;5.53;;;1.38;;
78887;SDS011;68276;49.326;8.690;2023-04-24T14:14:58;5.10;;;1.80;;
78887;SDS011;68276;49.326;8.690;2023-04-24T14:17:23;4.18;;;1.38;;
78887;SDS011;68276;49.326;8.690;2023-04-24T14:19:49;6.88;;;1.40;;
78887;SDS011;68276;49.326;8.690;2023-04-24T14:22:16;4.63;;;1.50;;
78887;SDS011;68276;49.326;8.690;2023-04-24T14:24:42;6.03;;;1.52;;
78887;SDS011;68276;49.326;8.690;2023-04-24T14:27:07;5.27;;;1.73;;
78887;SDS011;68276;49.326;8.690;2023-04-24T14:29:32;4.80;;;1.60;;
78887;SDS011;68276;49.326;8.690;2023-04-24T14:31:58;5.30;;;1.60;;
78887;SDS011;68276;49.326;8.690;2023-04-24T14:34:23;4.73;;;1.63;;
78887;SDS011;68276;49.326;8.690;2023-04-24T14:36:48;5.13;;;1.50;;
78887;SDS011;68276;49.326;8.690;2023-04-24T14:39:14;8.00;;;1.67;;
78887;SDS011;68276;49.326;8.690;2023-04-24T14:41:39;6.20;;;1.80;;
78887;SDS011;68276;49.326;8.690;2023-04-24T14:44:05;6.43;;;1.40;;
78887;SDS011;68276;49.326;8.690;2023-04-24T14:46:30;5.32;;;1.63;;
78887;SDS011;68276;49.326;8.690;2023-04-24T14:48:56;6.05;;;1.88;;
78887;SDS011;68276;49.326;8.690;2023-04-24T14:51:22;5.55;;;1.67;;
78887;SDS011;68276;49.326;8.690;2023-04-24T14:53:48;4.78;;;1.40;;
78887;SDS011;68276;49.326;8.690;2023-04-24T14:56:13;4.30;;;1.57;;
78887;SDS011;68276;49.326;8.690;2023-04-24T14:58:39;5.30;;;1.58;;
78887;SDS011;68276;49.326;8.690;2023-04-24T15:01:04;4.15;;;1.40;;
78887;SDS011;68276;49.326;8.690;2023-04-24T15:03:30;3.37;;;1.20;;
78887;SDS011;68276;49.326;8.690;2023-04-24T15:05:55;4.25;;;1.50;;
78887;SDS011;68276;49.326;8.690;2023-04-24T15:08:21;6.13;;;2.10;;
78887;SDS011;68276;49.326;8.690;2023-04-24T15:10:46;4.93;;;1.70;;
78887;SDS011;68276;49.326;8.690;2023-04-24T15:13:12;8.40;;;1.65;;
78887;SDS011;68276;49.326;8.690;2023-04-24T15:15:38;5.90;;;1.80;;
78887;SDS011;68276;49.326;8.690;2023-04-24T15:18:04;5.43;;;1.80;;
78887;SDS011;68276;49.326;8.690;2023-04-24T15:20:30;5.80;;;1.70;;
78887;SDS011;68276;49.326;8.690;2023-04-24T15:22:55;6.40;;;1.90;;
78887;SDS011;68276;49.326;8.690;2023-04-24T15:25:21;6.25;;;1.83;;
78887;SDS011;68276;49.326;8.690;2023-04-24T15:27:46;6.45;;;1.70;;
78887;SDS011;68276;49.326;8.690;2023-04-24T15:30:12;6.22;;;1.77;;
78887;SDS011;68276;49.326;8.690;2023-04-24T15:32:39;5.10;;;1.73;;
78887;SDS011;68276;49.326;8.690;2023-04-24T15:35:05;6.25;;;1.67;;
78887;SDS011;68276;49.326;8.690;2023-04-24T15:37:31;5.43;;;1.73;;